Time;durP1;ratioP1;P1;durP2;ratioP2;P2;SDS_P1;SDS_P2;PMS_P1;PMS_P2;Temp;Humidity;BMP_temperature;BMP_pressure;BME280_temperature;BME280_humidity;BME280_pressure;Samples;Min_cycle;Max_cycle;Signal;HPM_P1;HPM_P2
2022/10/02 00:01:46;;;;;;;27.75;4.07;;;;;;;15.99;67.99;100305.09;4965110;28;120133;-74
2022/10/02 00:04:22;;;;;;;33.08;4.45;;;;;;;15.98;68.33;100309.09;4957057;28;121205;-74
2022/10/02 00:06:50;;;;;;;28.65;4.20;;;;;;;15.97;68.98;100311.13;4961749;28;120559;-74
2022/10/02 00:09:27;;;;;;;28.85;4.07;;;;;;;15.95;69.05;100303.31;4965779;28;120206;-74
2022/10/02 00:11:57;;;;;;;32.47;4.70;;;;;;;15.99;68.83;100305.09;4945715;28;119937;-74
2022/10/02 00:14:26;;;;;;;41.05;4.70;;;;;;;15.95;68.75;100308.84;4960894;28;119694;-74
2022/10/02 00:16:55;;;;;;;28.40;4.13;;;;;;;15.98;68.88;100311.88;4960404;28;119841;-74
2022/10/02 00:19:21;;;;;;;31.80;4.10;;;;;;;16.00;68.81;100323.19;4965369;28;120049;-74
2022/10/02 00:22:00;;;;;;;31.50;4.38;;;;;;;16.01;68.78;100322.69;4961353;28;119967;-74
2022/10/02 00:24:58;;;;;;;38.03;4.60;;;;;;;16.01;68.78;100325.47;4962462;28;119970;-74
2022/10/02 00:27:55;;;;;;;35.95;4.35;;;;;;;16.01;68.66;100333.00;4960690;28;120083;-74
2022/10/02 00:30:21;;;;;;;34.08;4.95;;;;;;;16.01;69.26;100324.72;4961123;28;120185;-74
2022/10/02 00:33:04;;;;;;;32.60;4.65;;;;;;;15.99;69.26;100324.44;4963640;28;120293;-74
2022/10/02 00:35:30;;;;;;;32.53;4.38;;;;;;;16.02;69.28;100326.22;4962598;28;120104;-74
2022/10/02 00:38:02;;;;;;;29.00;4.23;;;;;;;16.04;69.49;100316.16;4962741;28;120156;-74
2022/10/02 00:40:49;;;;;;;38.80;4.43;;;;;;;16.09;69.45;100321.00;4965335;28;119836;-74
2022/10/02 00:43:36;;;;;;;33.72;4.43;;;;;;;16.12;69.50;100313.69;4964097;28;121005;-74
2022/10/02 00:46:24;;;;;;;29.45;4.03;;;;;;;16.15;69.30;100302.38;4963310;28;120179;-74
2022/10/02 00:49:03;;;;;;;29.73;3.77;;;;;;;16.17;69.09;100304.66;4961205;28;120148;-74
2022/10/02 00:51:55;;;;;;;35.13;4.40;;;;;;;16.16;68.92;100303.91;4945512;28;120563;-74
2022/10/02 00:54:45;;;;;;;34.50;4.45;;;;;;;16.21;68.77;100317.00;4961738;28;120007;-74
2022/10/02 00:57:47;;;;;;;34.65;4.20;;;;;;;16.19;68.60;100321.53;4960769;28;120344;-74
2022/10/02 01:00:18;;;;;;;33.67;4.28;;;;;;;16.14;68.89;100316.72;4962401;28;119666;-74
2022/10/02 01:02:52;;;;;;;33.72;4.78;;;;;;;16.16;68.70;100325.28;4962659;28;120296;-74
2022/10/02 01:05:22;;;;;;;33.92;4.43;;;;;;;16.12;69.21;100317.22;4966111;28;120184;-74
2022/10/02 01:07:52;;;;;;;31.03;3.97;;;;;;;16.17;69.19;100329.56;4961933;28;119581;-74
2022/10/02 01:10:21;;;;;;;37.97;4.32;;;;;;;16.13;69.16;100329.03;4966230;28;119577;-74
2022/10/02 01:12:48;;;;;;;36.92;4.75;;;;;;;16.15;69.13;100321.75;4965442;28;119836;-74
2022/10/02 01:15:20;;;;;;;30.33;4.18;;;;;;;16.16;69.14;100330.81;4948108;28;120006;-74
2022/10/02 01:17:51;;;;;;;30.90;4.22;;;;;;;16.13;68.96;100320.75;4966369;28;119878;-74
2022/10/02 01:20:34;;;;;;;34.30;4.20;;;;;;;16.16;68.69;100328.06;4964877;28;119638;-74
2022/10/02 01:23:39;;;;;;;39.60;4.47;;;;;;;16.17;68.94;100332.31;4965813;28;119900;-74
2022/10/02 01:26:06;;;;;;;31.37;4.40;;;;;;;16.14;68.94;100328.53;4951474;28;119962;-74
2022/10/02 01:28:31;;;;;;;37.75;4.38;;;;;;;16.14;68.67;100333.31;4967426;28;120157;-74
2022/10/02 01:31:06;;;;;;;32.97;4.60;;;;;;;16.14;69.00;100334.09;4966033;28;121041;-74
2022/10/02 01:33:33;;;;;;;38.42;4.57;;;;;;;16.09;68.91;100336.81;4966307;28;119912;-74
2022/10/02 01:35:59;;;;;;;30.98;3.88;;;;;;;16.13;69.13;100349.16;4966512;28;120245;-74
2022/10/02 01:38:27;;;;;;;31.77;4.40;;;;;;;16.12;69.15;100349.66;4963643;28;120002;-74
2022/10/02 01:40:52;;;;;;;31.23;4.30;;;;;;;16.13;68.95;100359.47;4965561;28;120572;-74
2022/10/02 01:43:23;;;;;;;45.83;4.78;;;;;;;16.12;69.38;100357.97;4965836;28;119769;-74
2022/10/02 01:46:14;;;;;;;41.45;4.93;;;;;;;16.13;69.05;100359.47;4964277;28;119628;-74
2022/10/02 01:48:44;;;;;;;39.55;4.30;;;;;;;16.12;69.41;100357.97;4967344;28;120218;-74
2022/10/02 01:51:19;;;;;;;46.65;4.65;;;;;;;16.13;69.71;100367.78;4973914;28;119923;-74
2022/10/02 01:54:12;;;;;;;27.20;3.88;;;;;;;16.12;69.06;100363.50;4968759;28;119968;-74
2022/10/02 01:56:56;;;;;;;26.30;3.77;;;;;;;16.12;69.30;100363.50;4937712;28;120116;-74
2022/10/02 01:59:43;;;;;;;33.63;4.10;;;;;;;16.10;68.73;100368.78;4966069;28;119873;-74
2022/10/02 02:02:36;;;;;;;36.60;4.27;;;;;;;16.09;68.68;100375.53;4965885;28;119941;-74
2022/10/02 02:05:37;;;;;;;32.58;4.00;;;;;;;16.06;68.83;100368.22;4973006;28;119861;-74
2022/10/02 02:08:33;;;;;;;27.60;3.20;;;;;;;16.03;68.34;100372.00;4962617;28;119997;-74
2022/10/02 02:11:18;;;;;;;24.75;3.13;;;;;;;15.99;68.16;100377.75;4959311;28;119995;-74
2022/10/02 02:13:53;;;;;;;24.05;3.17;;;;;;;15.96;68.20;100371.22;4963074;28;119661;-74
2022/10/02 02:16:38;;;;;;;19.65;2.80;;;;;;;15.95;68.23;100378.00;4971030;28;119918;-74
2022/10/02 02:19:10;;;;;;;28.07;3.30;;;;;;;15.95;68.48;100371.72;4969174;28;119975;-74
2022/10/02 02:21:41;;;;;;;28.45;3.40;;;;;;;15.94;68.33;100368.19;4970671;28;120425;-74
2022/10/02 02:24:14;;;;;;;18.05;2.67;;;;;;;15.93;68.15;100369.44;4968278;28;120166;-74
2022/10/02 02:26:43;;;;;;;19.38;2.88;;;;;;;15.94;67.87;100370.19;4963196;28;119898;-74
2022/10/02 02:29:11;;;;;;;19.97;2.80;;;;;;;15.92;67.92;100375.47;4968357;28;120142;-74
2022/10/02 02:31:51;;;;;;;26.83;3.43;;;;;;;15.91;67.83;100376.72;4968139;28;120035;-74
2022/10/02 02:34:37;;;;;;;28.20;3.40;;;;;;;15.88;68.07;100375.69;4970558;28;119747;-74
2022/10/02 02:37:12;;;;;;;20.92;2.70;;;;;;;15.88;68.02;100369.41;4966421;28;120790;-74
2022/10/02 02:39:49;;;;;;;19.67;2.92;;;;;;;15.85;67.53;100368.41;4972906;28;120364;-74
2022/10/02 02:42:20;;;;;;;28.20;3.35;;;;;;;15.82;67.65;100369.38;4964566;28;119949;-74
2022/10/02 02:44:54;;;;;;;22.48;2.72;;;;;;;15.85;67.72;100379.47;4964462;28;120190;-74
2022/10/02 02:47:31;;;;;;;21.70;3.22;;;;;;;15.85;68.10;100379.47;4957986;28;120441;-74
2022/10/02 02:50:13;;;;;;;30.43;3.57;;;;;;;15.84;68.13;100371.63;4946010;28;120964;-74
2022/10/02 02:53:00;;;;;;;25.13;3.17;;;;;;;15.86;67.62;100377.44;4963178;28;120064;-74
2022/10/02 02:55:44;;;;;;;22.63;3.00;;;;;;;15.81;67.81;100372.63;4974181;28;119921;-74
2022/10/02 02:58:43;;;;;;;25.70;3.45;;;;;;;15.85;68.11;100396.06;4967990;28;120047;-74
2022/10/02 03:01:09;;;;;;;22.30;3.25;;;;;;;15.86;68.14;100385.75;4979933;28;119651;-74
2022/10/02 03:03:35;;;;;;;25.63;3.63;;;;;;;15.91;68.26;100388.53;4968599;28;120131;-74
2022/10/02 03:06:12;;;;;;;28.95;3.78;;;;;;;15.94;68.27;100375.72;4967528;28;120247;-74
2022/10/02 03:08:38;;;;;;;27.02;3.72;;;;;;;15.94;68.26;100372.97;4969722;28;120419;-74
2022/10/02 03:11:42;;;;;;;29.10;4.00;;;;;;;15.94;68.34;100387.56;4967241;28;120228;-74
2022/10/02 03:14:29;;;;;;;26.77;3.65;;;;;;;15.99;67.99;100388.81;4963403;28;120035;-74
2022/10/02 03:17:26;;;;;;;24.90;3.78;;;;;;;16.00;67.73;100395.13;4966429;28;119732;-74
2022/10/02 03:20:40;;;;;;;25.13;3.83;;;;;;;15.96;67.68;100398.88;4938378;28;120330;-74
2022/10/02 03:23:18;;;;;;;26.67;3.78;;;;;;;15.96;67.96;100406.41;4966568;28;120452;-74
2022/10/02 03:25:58;;;;;;;30.73;4.20;;;;;;;15.93;67.78;100402.63;4964447;28;120896;-74
2022/10/02 03:28:34;;;;;;;33.83;4.60;;;;;;;15.89;67.91;100407.63;4963472;28;119966;-74
2022/10/02 03:31:01;;;;;;;31.83;3.90;;;;;;;15.82;68.84;100408.09;4966685;28;119805;-74
2022/10/02 03:33:29;;;;;;;35.42;4.40;;;;;;;15.86;69.23;100416.94;4966275;28;119927;-74
2022/10/02 03:35:55;;;;;;;38.13;4.63;;;;;;;15.90;69.83;100419.47;4966952;28;119788;-74
2022/10/02 03:38:24;;;;;;;24.10;3.67;;;;;;;15.95;69.99;100416.72;4969860;28;119593;-74
2022/10/02 03:40:51;;;;;;;30.02;4.15;;;;;;;16.00;69.57;100418.00;4964974;28;119811;-74
2022/10/02 03:43:32;;;;;;;27.33;3.53;;;;;;;16.12;69.47;100418.84;4967622;28;119937;-74
2022/10/02 03:46:14;;;;;;;31.50;4.00;;;;;;;16.18;69.63;100417.59;4961029;28;119435;-74
2022/10/02 03:48:42;;;;;;;25.90;3.90;;;;;;;16.22;69.11;100412.59;4976078;28;120532;-73
2022/10/02 03:51:08;;;;;;;28.05;3.80;;;;;;;16.24;69.02;100425.94;4972885;28;119692;-74
2022/10/02 03:53:38;;;;;;;35.17;3.97;;;;;;;16.26;68.97;100415.13;4950486;28;120491;-74
2022/10/02 03:56:07;;;;;;;21.45;3.50;;;;;;;16.21;68.28;100402.78;4966801;28;119916;-74
2022/10/02 03:58:35;;;;;;;24.60;3.88;;;;;;;16.26;67.76;100413.13;4964961;28;119913;-74
2022/10/02 04:01:18;;;;;;;32.40;3.83;;;;;;;16.28;68.20;100415.38;4964654;28;119867;-74
2022/10/02 04:04:20;;;;;;;25.92;3.72;;;;;;;16.24;67.69;100410.09;4983376;28;119991;-74
2022/10/02 04:07:03;;;;;;;28.52;3.95;;;;;;;16.19;67.76;100407.28;4960395;28;119407;-74
2022/10/02 04:10:13;;;;;;;28.45;4.18;;;;;;;16.20;68.07;100411.56;4958810;28;119877;-74
2022/10/02 04:12:48;;;;;;;32.47;3.80;;;;;;;16.15;67.92;100415.84;4912634;28;119850;-74
2022/10/02 04:15:28;;;;;;;26.85;3.78;;;;;;;16.12;68.41;100414.06;4955918;28;119949;-74
2022/10/02 04:18:00;;;;;;;32.60;4.13;;;;;;;16.12;68.39;100424.38;4961922;28;120625;-74
2022/10/02 04:20:36;;;;;;;26.20;4.30;;;;;;;16.10;68.75;100413.81;4974247;28;119643;-74
2022/10/02 04:23:39;;;;;;;27.17;4.00;;;;;;;16.10;68.74;100419.34;4966456;28;119783;-74
2022/10/02 04:26:29;;;;;;;27.92;3.63;;;;;;;16.13;68.70;100414.81;4960609;28;119354;-74
2022/10/02 04:29:04;;;;;;;26.13;3.53;;;;;;;16.14;68.83;100417.09;4998099;27;119942;-74
2022/10/02 04:31:30;;;;;;;27.60;3.63;;;;;;;16.11;68.27;100412.56;4966255;28;120262;-74
2022/10/02 04:34:02;;;;;;;25.00;3.85;;;;;;;16.19;68.00;100429.44;4963671;28;120142;-74
2022/10/02 04:36:57;;;;;;;27.70;3.80;;;;;;;16.17;67.97;100431.94;4973988;28;119983;-74
2022/10/02 04:39:25;;;;;;;33.00;3.80;;;;;;;16.16;68.44;100431.19;4967669;28;119550;-74
2022/10/02 04:42:29;;;;;;;27.67;4.03;;;;;;;16.17;68.64;100440.25;4973203;28;119916;-74
2022/10/02 04:45:27;;;;;;;31.85;4.25;;;;;;;16.16;68.81;100444.25;4967992;28;119960;-74
2022/10/02 04:48:38;;;;;;;25.63;3.72;;;;;;;16.15;68.03;100434.44;4972508;28;119936;-74
2022/10/02 04:51:37;;;;;;;31.80;4.22;;;;;;;16.14;67.97;100438.47;4964226;28;119585;-74
2022/10/02 04:54:47;;;;;;;34.25;4.07;;;;;;;16.08;67.70;100434.88;4968437;28;119891;-74
2022/10/02 04:57:46;;;;;;;27.02;4.10;;;;;;;16.08;67.89;100445.97;4976354;28;119588;-74
2022/10/02 05:00:19;;;;;;;23.90;3.73;;;;;;;16.03;67.57;100446.69;4978543;28;119917;-74
2022/10/02 05:03:00;;;;;;;23.90;3.53;;;;;;;16.03;67.84;100447.44;4965316;28;119881;-74
2022/10/02 05:05:48;;;;;;;24.20;3.83;;;;;;;16.01;67.86;100452.72;4967180;28;119927;-73
2022/10/02 05:08:19;;;;;;;38.15;4.43;;;;;;;16.00;67.90;100450.44;4976834;28;119855;-74
2022/10/02 05:10:52;;;;;;;25.92;3.88;;;;;;;15.98;67.76;100441.88;4972516;28;119875;-73
2022/10/02 05:13:53;;;;;;;25.23;3.60;;;;;;;15.96;67.50;100445.91;4973663;28;120530;-74
2022/10/02 05:16:52;;;;;;;23.58;3.53;;;;;;;15.91;67.53;100445.88;4962790;28;120137;-75
2022/10/02 05:19:45;;;;;;;23.92;3.60;;;;;;;15.89;67.39;100453.91;4973975;28;120001;-74
2022/10/02 05:22:25;;;;;;;21.97;3.47;;;;;;;15.86;67.15;100449.38;4962316;28;120004;-75
2022/10/02 05:25:35;;;;;;;21.48;3.30;;;;;;;15.80;66.81;100454.81;4973531;28;119820;-74
2022/10/02 05:28:30;;;;;;;20.92;3.20;;;;;;;15.75;67.30;100458.31;4964960;28;120055;-75
2022/10/02 05:31:07;;;;;;;19.33;3.60;;;;;;;15.69;66.88;100454.00;4967334;28;120203;-75
2022/10/02 05:33:55;;;;;;;19.92;4.05;;;;;;;15.64;67.42;100453.47;4968859;28;119637;-74
2022/10/02 05:36:39;;;;;;;23.40;4.53;;;;;;;15.59;67.51;100459.69;4956514;28;120106;-75
2022/10/02 05:39:11;;;;;;;26.63;4.68;;;;;;;15.57;67.52;100462.16;4967532;28;120182;-74
2022/10/02 05:41:44;;;;;;;24.55;5.40;;;;;;;15.55;67.36;100461.13;4967680;28;120667;-75
2022/10/02 05:44:41;;;;;;;28.60;4.80;;;;;;;15.54;68.37;100470.69;4973888;28;120213;-74
2022/10/02 05:47:44;;;;;;;20.92;4.50;;;;;;;15.54;68.51;100473.44;4966854;28;119933;-74
2022/10/02 05:50:20;;;;;;;24.45;3.95;;;;;;;15.54;68.89;100476.22;4960384;28;119898;-74
2022/10/02 05:52:55;;;;;;;24.40;4.18;;;;;;;15.58;69.00;100472.00;4985878;28;121590;-74
2022/10/02 05:55:36;;;;;;;25.80;3.85;;;;;;;15.64;69.33;100492.19;4970782;28;119947;-75
2022/10/02 05:58:15;;;;;;;24.97;3.87;;;;;;;15.70;69.25;100483.94;4960138;28;119742;-75
2022/10/02 06:00:49;;;;;;;29.33;4.07;;;;;;;15.75;69.40;100485.97;4963828;28;119873;-74
2022/10/02 06:03:30;;;;;;;29.38;4.47;;;;;;;15.83;69.36;100494.56;4964154;28;119889;-75
2022/10/02 06:06:16;;;;;;;43.55;5.00;;;;;;;15.88;69.58;100497.41;4953751;28;119533;-74
2022/10/02 06:08:47;;;;;;;30.40;4.65;;;;;;;15.98;70.05;100508.28;4973981;28;120052;-74
2022/10/02 06:11:23;;;;;;;29.98;4.03;;;;;;;16.09;69.60;100520.19;4981471;28;120138;-77
2022/10/02 06:13:55;;;;;;;26.20;3.53;;;;;;;16.14;69.23;100515.94;4970368;28;120042;-74
2022/10/02 06:16:38;;;;;;;24.80;3.70;;;;;;;16.26;68.87;100520.28;4972446;28;119727;-74
2022/10/02 06:19:14;;;;;;;30.52;4.30;;;;;;;16.27;68.17;100510.72;4968466;28;120158;-74
2022/10/02 06:22:06;;;;;;;32.58;4.30;;;;;;;16.34;67.79;100531.69;4963367;28;119739;-75
2022/10/02 06:24:39;;;;;;;29.35;4.03;;;;;;;16.32;67.10;100532.16;4962984;28;120609;-74
2022/10/02 06:27:34;;;;;;;29.70;4.35;;;;;;;16.30;66.82;100528.34;4971505;28;119680;-74
2022/10/02 06:30:05;;;;;;;29.83;4.15;;;;;;;16.31;67.30;100527.09;4932977;28;122179;-74
2022/10/02 06:32:47;;;;;;;31.10;4.60;;;;;;;16.32;67.42;100540.44;4974126;28;120513;-75
2022/10/02 06:35:16;;;;;;;29.80;4.07;;;;;;;16.28;67.60;100543.44;4966800;28;119787;-74
2022/10/02 06:37:57;;;;;;;30.33;4.40;;;;;;;16.38;67.80;100546.03;4952830;28;120946;-74
2022/10/02 06:40:54;;;;;;;37.55;4.80;;;;;;;16.46;67.82;100550.63;4938783;28;120569;-75
2022/10/02 06:44:11;;;;;;;28.92;3.78;;;;;;;16.55;67.91;100555.94;4893123;28;120641;-75
2022/10/02 06:46:55;;;;;;;22.35;3.75;;;;;;;16.63;67.06;100555.50;4943111;28;119767;-75
2022/10/02 06:49:36;;;;;;;25.27;3.55;;;;;;;16.62;66.78;100543.66;4952071;28;119646;-75
2022/10/02 06:52:07;;;;;;;25.47;3.27;;;;;;;16.69;67.13;100553.53;4944566;28;120052;-75
2022/10/02 06:54:42;;;;;;;30.45;4.40;;;;;;;16.68;66.00;100565.88;4944408;28;119751;-74
2022/10/02 06:57:32;;;;;;;31.20;4.00;;;;;;;16.65;66.67;100564.81;4946409;28;119567;-74
2022/10/02 07:00:02;;;;;;;24.87;3.77;;;;;;;16.62;nan;100562.28;4943741;28;119633;-75
2022/10/02 07:02:53;;;;;;;26.73;3.90;;;;;;;16.58;65.91;100568.06;4966535;28;120020;-74
2022/10/02 07:06:03;;;;;;;25.00;3.30;;;;;;;16.55;65.61;100572.56;4937179;28;119806;-76
2022/10/02 07:08:41;;;;;;;21.17;3.15;;;;;;;16.55;66.45;100577.34;4958499;28;120682;-74
2022/10/02 07:11:31;;;;;;;22.03;3.00;;;;;;;16.55;66.91;100580.88;4966471;28;119494;-74
2022/10/02 07:14:12;;;;;;;30.40;4.05;;;;;;;16.60;66.60;100584.19;4964455;28;121952;-76
2022/10/02 07:16:59;;;;;;;22.90;3.25;;;;;;;16.64;66.82;100591.00;4969200;28;119511;-74
2022/10/02 07:19:33;;;;;;;26.42;3.47;;;;;;;16.69;66.79;100586.78;4967593;28;119723;-76
2022/10/02 07:22:18;;;;;;;22.25;3.17;;;;;;;16.73;66.46;100585.28;4975022;28;120471;-74
2022/10/02 07:25:18;;;;;;;21.07;3.23;;;;;;;16.78;65.84;100595.63;4972488;28;120080;-74
2022/10/02 07:28:09;;;;;;;20.93;2.90;;;;;;;16.85;66.19;100599.97;4946842;28;119688;-74
2022/10/02 07:30:49;;;;;;;24.58;3.08;;;;;;;16.90;66.04;100592.94;4981814;27;119916;-75
2022/10/02 07:34:01;;;;;;;15.18;2.60;;;;;;;16.90;65.30;100601.25;4972862;28;119434;-75
2022/10/02 07:36:44;;;;;;;18.23;2.65;;;;;;;16.96;66.09;100611.09;4963905;28;119849;-75
2022/10/02 07:39:31;;;;;;;23.03;2.93;;;;;;;16.99;65.84;100609.34;4950137;28;119646;-75
2022/10/02 07:42:32;;;;;;;18.35;2.50;;;;;;;17.09;65.90;100619.75;4966544;28;119578;-74
2022/10/02 07:45:27;;;;;;;15.52;2.67;;;;;;;17.16;65.55;100626.81;4973011;28;120955;-75
2022/10/02 07:48:08;;;;;;;15.60;2.60;;;;;;;17.23;65.81;100631.88;4955909;28;120118;-75
2022/10/02 07:50:47;;;;;;;20.20;3.17;;;;;;;17.32;65.25;100625.38;4966610;28;119404;-75
2022/10/02 07:53:38;;;;;;;30.07;3.20;;;;;;;17.37;65.13;100628.16;4970904;28;119789;-75
2022/10/02 07:56:08;;;;;;;25.98;3.30;;;;;;;17.46;65.24;100639.03;4961811;28;120150;-75
2022/10/02 07:58:43;;;;;;;17.10;2.70;;;;;;;17.61;65.56;100638.84;4968032;28;119909;-74
2022/10/02 08:01:19;;;;;;;30.73;3.30;;;;;;;17.69;64.87;100645.44;4963503;28;119923;-74
2022/10/02 08:03:55;;;;;;;18.30;3.58;;;;;;;17.72;63.76;100649.22;4963740;28;119514;-75
2022/10/02 08:06:21;;;;;;;20.23;3.67;;;;;;;17.70;64.57;100644.16;4962578;28;120037;-75
2022/10/02 08:09:11;;;;;;;23.80;3.20;;;;;;;17.77;65.09;100659.59;4963324;28;119722;-74
2022/10/02 08:12:22;;;;;;;25.40;3.50;;;;;;;17.77;64.59;100646.47;4961805;28;120383;-75
2022/10/02 08:14:54;;;;;;;16.30;2.77;;;;;;;17.63;63.65;100641.84;4967918;28;119619;-75
2022/10/02 08:17:38;;;;;;;26.13;3.20;;;;;;;17.53;63.30;100657.22;4964140;28;119931;-75
2022/10/02 08:20:29;;;;;;;27.55;3.60;;;;;;;17.39;64.79;100650.59;4971061;28;119765;-75
2022/10/02 08:23:22;;;;;;;22.60;3.43;;;;;;;17.34;65.96;100661.69;4962684;28;119695;-74
2022/10/02 08:26:29;;;;;;;23.10;3.35;;;;;;;17.39;66.50;100656.16;4968308;28;120105;-75
2022/10/02 08:29:04;;;;;;;25.45;3.47;;;;;;;17.51;67.43;100659.72;4963171;28;120069;-75
2022/10/02 08:31:31;;;;;;;30.17;3.93;;;;;;;17.63;67.21;100649.41;4962330;28;119786;-74
2022/10/02 08:34:12;;;;;;;24.58;3.40;;;;;;;17.74;66.65;100661.34;4996681;27;120557;-74
2022/10/02 08:36:46;;;;;;;20.00;3.60;;;;;;;17.85;65.50;100655.06;4965108;28;119657;-74
2022/10/02 08:39:32;;;;;;;22.10;3.78;;;;;;;17.95;66.02;100663.91;4967995;28;119615;-75
2022/10/02 08:42:32;;;;;;;22.77;3.88;;;;;;;18.02;65.49;100666.19;4967477;28;119662;-75
2022/10/02 08:45:40;;;;;;;23.50;3.70;;;;;;;18.05;65.00;100665.94;4948029;28;120146;-75
2022/10/02 08:49:07;;;;;;;26.15;3.85;;;;;;;18.16;65.87;100673.53;4956247;28;120035;-75
2022/10/02 08:52:12;;;;;;;27.90;4.32;;;;;;;18.26;65.70;100672.03;4900326;28;120211;-75
2022/10/02 08:54:44;;;;;;;24.65;4.05;;;;;;;18.33;64.08;100676.31;4885599;28;120154;-74
2022/10/02 08:57:17;;;;;;;23.83;4.28;;;;;;;18.36;64.43;100678.09;4966178;28;120113;-74
2022/10/02 09:00:09;;;;;;;25.52;4.15;;;;;;;18.47;63.75;100680.88;4959615;28;120337;-75
2022/10/02 09:02:56;;;;;;;28.77;3.90;;;;;;;18.56;63.84;100677.84;4949874;28;120272;-75
2022/10/02 09:06:10;;;;;;;28.07;4.30;;;;;;;18.64;63.77;100689.22;4952007;28;120420;-74
2022/10/02 09:08:52;;;;;;;22.13;3.70;;;;;;;18.66;63.35;100681.88;4965741;28;120255;-75
2022/10/02 09:11:20;;;;;;;27.87;4.07;;;;;;;18.75;63.43;100685.69;4946292;28;119818;-75
2022/10/02 09:13:46;;;;;;;27.63;4.45;;;;;;;18.78;63.32;100687.44;4964519;28;120350;-75
2022/10/02 09:16:37;;;;;;;24.17;4.40;;;;;;;18.84;61.76;100686.16;4971312;28;120309;-75
2022/10/02 09:19:14;;;;;;;24.95;3.90;;;;;;;18.89;62.37;100692.97;4969643;28;119687;-75
2022/10/02 09:21:53;;;;;;;28.13;4.40;;;;;;;18.95;61.80;100699.31;4966255;28;121939;-74
2022/10/02 09:24:19;;;;;;;23.92;4.32;;;;;;;18.95;60.84;100708.41;4965501;28;119740;-75
2022/10/02 09:27:10;;;;;;;20.60;3.77;;;;;;;18.86;60.68;100705.09;4967359;28;119723;-74
2022/10/02 09:30:17;;;;;;;19.87;3.77;;;;;;;18.81;60.34;100697.53;4941153;28;120227;-75
2022/10/02 09:33:14;;;;;;;21.00;3.63;;;;;;;18.85;61.40;100703.59;4965119;28;120245;-75
2022/10/02 09:36:10;;;;;;;25.00;4.05;;;;;;;18.87;59.86;100707.38;4968134;28;121769;-74
2022/10/02 09:38:49;;;;;;;21.65;3.67;;;;;;;18.83;60.23;100706.13;4984033;28;119606;-75
2022/10/02 09:41:33;;;;;;;18.23;3.25;;;;;;;18.81;59.46;100703.84;4969423;28;119857;-74
2022/10/02 09:44:34;;;;;;;20.10;3.60;;;;;;;18.99;60.03;100713.69;4954767;28;120162;-75
2022/10/02 09:47:22;;;;;;;19.63;3.70;;;;;;;19.17;59.38;100709.63;4963748;28;119965;-75
2022/10/02 09:50:06;;;;;;;23.52;3.70;;;;;;;19.28;59.46;100706.78;4965010;28;119926;-75
2022/10/02 09:53:00;;;;;;;23.02;3.78;;;;;;;19.45;61.05;100713.06;4976122;28;119947;-75
2022/10/02 09:55:35;;;;;;;21.27;3.65;;;;;;;19.56;58.47;100713.03;4968644;28;120396;-75
2022/10/02 09:58:51;;;;;;;21.77;3.92;;;;;;;19.56;57.25;100709.50;4967064;28;120161;-75
2022/10/02 10:01:43;;;;;;;21.25;3.45;;;;;;;19.43;56.62;100723.94;4966254;28;120016;-75
2022/10/02 10:04:46;;;;;;;19.03;3.77;;;;;;;19.37;58.60;100728.75;4965306;28;119887;-75
2022/10/02 10:07:37;;;;;;;23.73;3.90;;;;;;;19.40;57.46;100732.53;4962887;28;121266;-75
2022/10/02 10:10:11;;;;;;;27.08;5.03;;;;;;;19.29;57.12;100727.78;4962203;28;120259;-75
2022/10/02 10:13:11;;;;;;;23.63;4.70;;;;;;;19.26;57.44;100737.91;4967154;28;120637;-74
2022/10/02 10:16:18;;;;;;;21.77;4.18;;;;;;;19.17;57.50;100737.44;4962855;28;119614;-75
2022/10/02 10:19:22;;;;;;;25.90;4.43;;;;;;;19.05;57.83;100744.25;4972059;28;120075;-75
2022/10/02 10:22:09;;;;;;;20.20;3.95;;;;;;;18.97;58.57;100741.25;4965873;28;120007;-75
2022/10/02 10:24:54;;;;;;;23.88;4.13;;;;;;;18.88;58.15;100742.25;4964626;28;119638;-75
2022/10/02 10:27:46;;;;;;;23.25;4.13;;;;;;;18.87;59.57;100751.84;4965351;28;120167;-75
2022/10/02 10:30:28;;;;;;;29.13;4.88;;;;;;;18.93;58.91;100749.09;4966711;28;120084;-75
2022/10/02 10:33:33;;;;;;;27.15;4.97;;;;;;;19.06;58.79;100757.66;4962054;28;119717;-75
2022/10/02 10:39:12;;;;;;;26.58;4.90;;;;;;;19.33;59.31;100754.06;4977389;28;120365;-75
2022/10/02 10:42:00;;;;;;;25.57;4.77;;;;;;;19.44;58.45;100758.84;4961340;28;120155;-75
2022/10/02 10:44:50;;;;;;;23.83;4.57;;;;;;;19.50;57.60;100756.78;4973025;28;119981;-80
2022/10/02 10:47:37;;;;;;;24.43;4.80;;;;;;;19.51;57.17;100761.09;4971324;28;119881;-81
2022/10/02 10:50:23;;;;;;;23.63;4.37;;;;;;;19.56;57.45;100763.13;4967141;28;120308;-78
2022/10/02 10:53:21;;;;;;;28.27;4.70;;;;;;;19.61;57.74;100764.38;4957353;28;120462;-78
2022/10/02 10:56:18;;;;;;;23.57;4.17;;;;;;;19.67;55.17;100764.38;4963990;28;120086;-75
2022/10/02 10:59:21;;;;;;;22.33;4.15;;;;;;;19.73;56.47;100779.75;4963871;28;119960;-74
2022/10/02 11:02:05;;;;;;;24.47;4.83;;;;;;;19.79;54.44;100771.38;4965683;28;120786;-74
2022/10/02 11:05:14;;;;;;;24.77;4.60;;;;;;;19.86;55.58;100782.72;4966346;28;120242;-74
2022/10/02 11:08:17;;;;;;;24.85;4.38;;;;;;;19.81;55.48;100779.97;4965536;28;119953;-74
2022/10/02 11:11:14;;;;;;;23.67;4.37;;;;;;;19.71;55.66;100789.91;4970086;28;119992;-75
2022/10/02 11:13:49;;;;;;;27.00;5.17;;;;;;;19.66;55.62;100797.00;4960255;28;119579;-74
2022/10/02 11:17:02;;;;;;;19.67;4.45;;;;;;;19.67;55.88;100786.63;4964379;28;119843;-75
2022/10/02 11:19:42;;;;;;;23.23;3.97;;;;;;;19.67;55.77;100795.72;4971391;28;119552;-75
2022/10/02 11:22:34;;;;;;;18.08;4.07;;;;;;;19.60;55.50;100790.69;4962334;28;119802;-74
2022/10/02 11:25:22;;;;;;;21.42;3.97;;;;;;;19.46;54.37;100795.25;4954021;28;120017;-74
2022/10/02 11:28:15;;;;;;;21.65;3.83;;;;;;;19.39;56.63;100798.53;4967634;28;119864;-75
2022/10/02 11:31:16;;;;;;;22.52;3.95;;;;;;;19.46;55.61;100806.38;4970288;28;119513;-75
2022/10/02 11:34:03;;;;;;;18.27;4.00;;;;;;;19.52;55.07;100798.00;4969625;28;120019;-75
2022/10/02 11:36:49;;;;;;;21.73;4.57;;;;;;;19.69;56.24;100807.09;4969963;28;120247;-75
2022/10/02 11:39:27;;;;;;;20.08;4.13;;;;;;;19.81;55.72;100816.91;4958191;28;120659;-75
2022/10/02 11:42:19;;;;;;;26.17;4.55;;;;;;;19.79;55.41;100808.31;4967980;28;120139;-75
2022/10/02 11:45:20;;;;;;;25.30;4.28;;;;;;;19.75;55.50;100807.09;4984281;28;119643;-75
2022/10/02 11:47:55;;;;;;;23.70;4.30;;;;;;;19.71;56.43;100804.56;4914872;28;121207;-75
2022/10/02 11:50:40;;;;;;;24.33;4.18;;;;;;;19.77;56.26;100829.59;4937672;28;119885;-75
2022/10/02 11:53:21;;;;;;;25.48;4.25;;;;;;;19.81;56.71;100816.91;4968808;28;120426;-75
2022/10/02 11:55:56;;;;;;;22.73;4.57;;;;;;;19.85;56.44;100816.66;4965513;28;120386;-75
2022/10/02 11:58:59;;;;;;;24.17;4.10;;;;;;;19.73;56.40;100817.97;4963032;28;121877;-75
2022/10/02 12:01:44;;;;;;;26.30;4.57;;;;;;;19.71;56.03;100824.03;4972913;28;119768;-75
2022/10/02 12:04:45;;;;;;;24.73;4.15;;;;;;;19.69;56.62;100821.03;4972337;28;120419;-75
2022/10/02 12:07:14;;;;;;;20.50;4.20;;;;;;;19.74;56.63;100833.41;4953299;28;119786;-75
2022/10/02 12:09:53;;;;;;;16.65;3.55;;;;;;;19.72;54.76;100835.94;4964103;28;120177;-75
2022/10/02 12:13:09;;;;;;;20.40;3.92;;;;;;;19.58;55.33;100838.47;4948272;28;119756;-75
2022/10/02 12:16:18;;;;;;;18.57;3.93;;;;;;;19.60;54.64;100835.94;4933738;28;120195;-75
2022/10/02 12:18:58;;;;;;;22.67;3.75;;;;;;;19.61;54.55;100837.47;4963999;28;121333;-74
2022/10/02 12:27:50;;;;;;;20.52;4.00;;;;;;;19.71;55.21;100848.34;4964274;28;119754;-75
2022/10/02 12:30:24;;;;;;;16.33;3.93;;;;;;;19.72;54.90;100852.63;4962506;28;120224;-75
2022/10/02 12:33:13;;;;;;;17.98;3.88;;;;;;;19.70;55.09;100849.59;4963102;28;119909;-75
2022/10/02 12:36:00;;;;;;;19.25;4.20;;;;;;;19.60;55.13;100861.00;4963772;28;120054;-75